19NK weather

Riveredge Airpark
Central Square, New York, United States

Public forecast

Using degrees Fahrenheit for public forecast. Weather courtesy of forecast.io.

METAR (pilot weather report)

Closest report is Syracuse Hancock International Airport, 8.2 nm (15.2 km) SSE. Retrieved 2019/09/16 07:54 UTC (14 minutes ago):

KSYR 160754Z 03003KT 10SM FEW018 OVC037 16/14 A3011 RMK AO2 SLP192 T01610139

TAF (pilot weather forecast)

Closest forecast is Syracuse Hancock International Airport, 8.2 nm (15.2 km) SSE. Retrieved 2019/09/16 06:22 UTC (2 hours ago):

TAF KSYR 160520Z 1606/1706 05002KT P6SM OVC035 FM161500 35005KT P6SM SCT100